Time;durP1;ratioP1;P1;durP2;ratioP2;P2;SDS_P1;SDS_P2;PMS_P1;PMS_P2;Temp;Humidity;BMP_temperature;BMP_pressure;BME280_temperature;BME280_humidity;BME280_pressure;Samples;Min_cycle;Max_cycle;Signal;HPM_P1;HPM_P2
2023/02/01 00:02:45;;;;;;;3.80;0.85;;;14.90;66.10;;;;;;10404635;28;20124;-56
2023/02/01 00:07:49;;;;;;;2.17;1.00;;;14.90;66.00;;;;;;10404589;28;20034;-56
2023/02/01 00:12:50;;;;;;;3.15;1.20;;;14.90;66.10;;;;;;10388151;28;20021;-56
2023/02/01 00:17:55;;;;;;;2.08;0.90;;;14.90;66.10;;;;;;10403847;28;20473;-56
2023/02/01 00:22:55;;;;;;;3.35;0.77;;;14.80;66.00;;;;;;10417992;28;20036;-56
2023/02/01 00:27:58;;;;;;;2.08;1.02;;;14.80;65.90;;;;;;10404963;28;20026;-57
2023/02/01 00:32:59;;;;;;;4.30;1.15;;;14.80;65.90;;;;;;10415273;28;20028;-57
2023/02/01 00:38:00;;;;;;;3.78;1.10;;;14.80;66.00;;;;;;10420654;28;20449;-55
2023/02/01 00:43:00;;;;;;;3.67;0.93;;;14.80;65.90;;;;;;10430091;28;20025;-56
2023/02/01 00:48:01;;;;;;;2.97;0.90;;;14.80;65.90;;;;;;10461594;28;20035;-61
2023/02/01 00:53:02;;;;;;;2.05;0.70;;;14.80;65.90;;;;;;10436622;28;20056;-56
2023/02/01 00:58:05;;;;;;;2.25;0.95;;;14.70;65.80;;;;;;10444589;28;20104;-55
2023/02/01 01:03:17;;;;;;;2.92;0.90;;;14.70;65.80;;;;;;10444306;28;20083;-56
2023/02/01 01:08:18;;;;;;;1.90;0.68;;;14.70;65.90;;;;;;10445464;28;20037;-57
2023/02/01 01:13:18;;;;;;;1.92;1.02;;;14.70;65.80;;;;;;10446123;28;20092;-57
2023/02/01 01:18:19;;;;;;;1.90;0.85;;;14.70;65.80;;;;;;10435843;28;20061;-56
2023/02/01 01:23:20;;;;;;;1.33;0.80;;;14.70;65.90;;;;;;10427839;28;20383;-57
2023/02/01 01:28:20;;;;;;;2.53;0.70;;;14.70;65.90;;;;;;10432500;28;20722;-55
2023/02/01 01:33:21;;;;;;;2.45;0.98;;;14.60;65.80;;;;;;10409393;28;20402;-56
2023/02/01 01:38:22;;;;;;;2.78;0.98;;;14.60;65.80;;;;;;10410194;28;20036;-56
2023/02/01 01:43:22;;;;;;;2.55;0.80;;;14.60;65.80;;;;;;10424630;28;20017;-56
2023/02/01 01:48:29;;;;;;;1.83;0.73;;;14.60;65.80;;;;;;10436702;28;20049;-55
2023/02/01 01:53:38;;;;;;;3.90;1.48;;;14.60;65.80;;;;;;10417834;28;20100;-54
2023/02/01 01:58:39;;;;;;;4.63;1.52;;;14.60;66.40;;;;;;10437482;28;20017;-57
2023/02/01 02:03:43;;;;;;;1.90;0.80;;;14.60;65.80;;;;;;10409135;28;20029;-57
2023/02/01 02:08:43;;;;;;;1.70;0.70;;;14.60;65.80;;;;;;10409093;28;20038;-56
2023/02/01 02:13:50;;;;;;;0.90;0.50;;;14.60;65.80;;;;;;10409967;28;20670;-57
2023/02/01 02:19:09;;;;;;;1.92;0.73;;;14.50;65.80;;;;;;10408992;28;20053;-56
2023/02/01 02:24:36;;;;;;;2.33;1.38;;;14.50;65.70;;;;;;10438873;28;20029;-57
2023/02/01 02:30:09;;;;;;;3.00;0.93;;;14.50;65.70;;;;;;10414561;28;20029;-56
2023/02/01 02:35:36;;;;;;;2.15;0.88;;;14.50;65.70;;;;;;10409438;28;20031;-57
2023/02/01 02:40:42;;;;;;;2.63;1.42;;;14.50;65.70;;;;;;10436899;28;20047;-55
2023/02/01 03:08:14;;;;;;;;;;;14.40;65.60;;;;;;10408117;28;20045;-55
2023/02/01 03:13:57;;;;;;;1.65;0.68;;;14.40;65.70;;;;;;10407559;28;19948;-55
2023/02/01 03:19:08;;;;;;;1.88;0.70;;;14.40;65.60;;;;;;10406355;28;20045;-55
2023/02/01 03:24:32;;;;;;;1.20;0.63;;;14.40;65.60;;;;;;10448614;28;20017;-57
2023/02/01 03:29:47;;;;;;;1.50;0.50;;;14.40;65.70;;;;;;10446939;28;20028;-56
2023/02/01 03:34:49;;;;;;;2.88;0.65;;;14.40;65.80;;;;;;10447310;28;20040;-56
2023/02/01 03:40:00;;;;;;;1.35;0.70;;;14.40;65.70;;;;;;10447750;28;20104;-56
2023/02/01 03:45:13;;;;;;;2.30;1.00;;;14.40;65.70;;;;;;10432956;28;20025;-56
2023/02/01 03:50:23;;;;;;;1.67;0.63;;;14.40;65.70;;;;;;10438542;28;20020;-56
2023/02/01 03:55:27;;;;;;;1.10;0.63;;;14.40;65.70;;;;;;10445446;28;20024;-55
2023/02/01 04:00:28;;;;;;;1.83;0.73;;;14.30;65.60;;;;;;10445909;28;20033;-56
2023/02/01 04:05:30;;;;;;;1.85;0.80;;;14.40;65.50;;;;;;10445661;28;20543;-56
2023/02/01 04:10:30;;;;;;;1.67;0.70;;;14.60;65.00;;;;;;10446728;28;20471;-56
2023/02/01 04:15:31;;;;;;;2.80;0.63;;;14.80;64.30;;;;;;10445261;28;20045;-55
2023/02/01 04:20:32;;;;;;;1.15;0.43;;;15.00;63.80;;;;;;10404780;28;20526;-56
2023/02/01 04:25:32;;;;;;;2.40;0.70;;;15.10;63.30;;;;;;10446641;28;20029;-57
2023/02/01 04:30:33;;;;;;;1.42;0.77;;;15.30;62.70;;;;;;10445202;28;20059;-57
2023/02/01 04:35:34;;;;;;;2.05;1.08;;;15.60;62.10;;;;;;10445043;28;20074;-55
2023/02/01 04:40:37;;;;;;;2.83;0.60;;;15.80;61.40;;;;;;10431366;28;20028;-56
2023/02/01 04:45:37;;;;;;;1.27;0.50;;;16.00;60.80;;;;;;10428134;28;20025;-57
2023/02/01 04:50:38;;;;;;;0.88;0.32;;;16.20;60.50;;;;;;10443840;28;20496;-55
2023/02/01 04:55:39;;;;;;;1.35;0.45;;;16.30;60.30;;;;;;10428546;28;20045;-55
2023/02/01 05:00:39;;;;;;;1.67;0.30;;;16.30;60.10;;;;;;10425811;28;20064;-56
2023/02/01 05:05:40;;;;;;;2.22;0.63;;;16.40;60.10;;;;;;10426617;28;20086;-54
2023/02/01 05:10:41;;;;;;;1.58;0.40;;;16.50;60.00;;;;;;10432056;28;20092;-54
2023/02/01 05:15:41;;;;;;;1.17;0.47;;;16.50;59.80;;;;;;10431833;28;20082;-56
2023/02/01 05:20:42;;;;;;;6.40;0.95;;;16.60;59.70;;;;;;10434999;28;20081;-57
2023/02/01 05:25:43;;;;;;;1.60;0.95;;;16.60;59.60;;;;;;10435829;28;20031;-55
2023/02/01 05:30:44;;;;;;;1.02;0.82;;;16.70;59.60;;;;;;10429418;28;20013;-56
2023/02/01 05:35:44;;;;;;;2.47;0.90;;;16.70;59.60;;;;;;10420253;28;20101;-59
2023/02/01 05:40:49;;;;;;;1.25;0.50;;;16.70;59.40;;;;;;10412215;28;20025;-56
2023/02/01 05:45:52;;;;;;;2.15;0.50;;;16.80;59.20;;;;;;10422922;28;20040;-55
2023/02/01 05:50:53;;;;;;;1.73;0.73;;;16.80;59.20;;;;;;10431286;28;20166;-54
2023/02/01 05:55:54;;;;;;;7.85;1.25;;;16.80;59.20;;;;;;10406437;28;20087;-56
2023/02/01 06:00:54;;;;;;;3.03;0.80;;;16.70;59.70;;;;;;10422640;28;20028;-55
2023/02/01 06:05:55;;;;;;;1.05;0.50;;;16.80;60.20;;;;;;10422806;28;20045;-54
2023/02/01 06:11:04;;;;;;;3.17;0.57;;;16.90;60.40;;;;;;10418102;28;20044;-55
2023/02/01 06:16:07;;;;;;;4.60;0.95;;;16.90;60.90;;;;;;10404696;28;20060;-57
2023/02/01 06:21:08;;;;;;;5.25;0.73;;;17.10;60.70;;;;;;10412031;28;20338;-56
2023/02/01 06:26:10;;;;;;;11.20;1.38;;;17.10;61.30;;;;;;10429604;28;20356;-51
2023/02/01 06:31:11;;;;;;;5.70;1.20;;;17.10;61.90;;;;;;10447036;28;20483;-54
2023/02/01 06:36:12;;;;;;;6.55;1.17;;;17.20;61.80;;;;;;10445739;28;20070;-55
2023/02/01 06:41:13;;;;;;;4.63;0.98;;;17.20;62.70;;;;;;10445738;28;20104;-54
2023/02/01 06:46:14;;;;;;;6.22;1.02;;;17.10;62.50;;;;;;10424747;28;20038;-55
2023/02/01 06:51:21;;;;;;;3.45;1.08;;;17.20;62.40;;;;;;10414818;28;20029;-55
2023/02/01 06:56:21;;;;;;;10.48;1.17;;;17.20;61.90;;;;;;10404665;28;20029;-54
2023/02/01 07:01:22;;;;;;;11.90;1.50;;;17.00;62.90;;;;;;10389646;28;20029;-53
2023/02/01 07:06:23;;;;;;;9.95;1.75;;;17.00;62.60;;;;;;10406002;28;20067;-53
2023/02/01 07:11:24;;;;;;;11.25;2.10;;;16.80;63.20;;;;;;10402699;28;20419;-55
2023/02/01 07:16:25;;;;;;;10.13;1.50;;;16.50;63.30;;;;;;10405580;28;20057;-56
2023/02/01 07:21:27;;;;;;;7.78;1.38;;;16.60;62.70;;;;;;10422716;28;20025;-55
2023/02/01 07:26:28;;;;;;;10.65;1.63;;;16.60;62.40;;;;;;10429291;28;20120;-56
2023/02/01 07:31:28;;;;;;;11.07;4.68;;;16.60;62.20;;;;;;10409165;28;20028;-56
2023/02/01 07:36:29;;;;;;;7.30;1.65;;;16.60;62.10;;;;;;10429985;28;20021;-55
2023/02/01 07:41:30;;;;;;;7.00;3.42;;;16.60;62.50;;;;;;10446239;28;20021;-55
2023/02/01 07:46:30;;;;;;;7.22;1.67;;;16.60;62.40;;;;;;10431917;28;20382;-55
2023/02/01 07:51:32;;;;;;;5.38;1.27;;;16.60;62.40;;;;;;10446010;28;20100;-59
2023/02/01 07:56:32;;;;;;;7.82;1.13;;;16.50;62.80;;;;;;10421464;28;20365;-57
2023/02/01 08:01:33;;;;;;;8.00;1.77;;;16.50;63.00;;;;;;10417386;28;20027;-58
2023/02/01 08:06:34;;;;;;;6.72;1.00;;;16.40;63.00;;;;;;10404624;28;20025;-58
2023/02/01 08:11:37;;;;;;;7.18;1.42;;;16.30;63.40;;;;;;10405643;28;20025;-57
2023/02/01 08:16:39;;;;;;;5.72;1.27;;;16.30;63.60;;;;;;10407903;28;20046;-58
2023/02/01 08:21:39;;;;;;;4.55;1.30;;;16.30;63.30;;;;;;10422391;28;20064;-58
2023/02/01 08:26:40;;;;;;;3.72;0.95;;;16.50;63.00;;;;;;10426612;28;20124;-58
2023/02/01 08:31:41;;;;;;;7.80;2.20;;;16.50;63.40;;;;;;10423955;28;20013;-58
2023/02/01 08:36:42;;;;;;;6.75;2.20;;;16.60;63.60;;;;;;10406295;28;20018;-58
2023/02/01 08:42:50;;;;;;;3.95;1.20;;;16.70;62.90;;;;;;10409664;28;20041;-57
2023/02/01 08:47:04;;;;;;;5.55;1.20;;;16.80;63.10;;;;;;10453248;28;20093;-56
2023/02/01 08:52:04;;;;;;;4.13;1.10;;;16.70;63.10;;;;;;10439413;28;20083;-58
2023/02/01 08:57:05;;;;;;;7.95;1.58;;;16.70;63.40;;;;;;10450142;28;20047;-58
2023/02/01 09:02:08;;;;;;;7.47;1.73;;;16.70;63.70;;;;;;10443643;28;20066;-59
2023/02/01 09:07:09;;;;;;;3.53;1.23;;;16.60;64.00;;;;;;10419212;28;20088;-58
2023/02/01 09:12:10;;;;;;;6.32;2.25;;;16.60;64.30;;;;;;10423069;28;20005;-60
2023/02/01 09:17:13;;;;;;;4.03;1.42;;;16.50;64.40;;;;;;10423775;28;20057;-58
2023/02/01 09:22:16;;;;;;;10.45;1.83;;;16.50;64.70;;;;;;10438606;28;20512;-58
2023/02/01 09:27:16;;;;;;;5.55;1.50;;;16.40;64.80;;;;;;10451751;28;20036;-56
2023/02/01 09:32:19;;;;;;;9.70;1.67;;;16.30;64.70;;;;;;10422219;28;20069;-58
2023/02/01 09:37:20;;;;;;;5.07;1.92;;;16.30;64.60;;;;;;10428232;28;20392;-58
2023/02/01 09:43:09;;;;;;;7.60;1.73;;;16.30;64.80;;;;;;10446411;28;20079;-58
2023/02/01 09:48:19;;;;;;;6.20;2.13;;;16.30;65.00;;;;;;10441172;28;20087;-56
2023/02/01 09:53:36;;;;;;;6.25;1.65;;;16.30;64.40;;;;;;10418146;28;20020;-57
2023/02/01 09:58:47;;;;;;;8.13;1.55;;;16.10;65.10;;;;;;10418391;28;20027;-56
2023/02/01 10:03:49;;;;;;;7.82;2.53;;;15.90;65.50;;;;;;10426507;28;20803;-55
2023/02/01 10:09:31;;;;;;;4.63;1.52;;;15.80;65.70;;;;;;10419911;28;20029;-57
2023/02/01 10:14:55;;;;;;;5.32;1.90;;;15.70;65.80;;;;;;10433796;28;20491;-56
2023/02/01 10:20:42;;;;;;;4.88;2.00;;;15.60;65.90;;;;;;10409741;28;20111;-56
2023/02/01 10:26:15;;;;;;;3.47;1.50;;;15.60;65.60;;;;;;10408592;28;20116;-57
2023/02/01 10:31:16;;;;;;;4.53;1.20;;;15.60;65.40;;;;;;10417981;28;20033;-57
2023/02/01 10:36:30;;;;;;;4.47;1.00;;;15.70;65.10;;;;;;10408079;28;20029;-56
2023/02/01 10:41:35;;;;;;;3.38;1.15;;;15.70;64.80;;;;;;10408022;28;20032;-57
2023/02/01 10:46:36;;;;;;;3.58;0.90;;;15.80;64.40;;;;;;10434921;28;20029;-57
2023/02/01 10:52:06;;;;;;;3.60;1.25;;;15.80;64.10;;;;;;10442151;28;20467;-58
2023/02/01 10:57:20;;;;;;;;;;;15.90;63.80;;;;;;10449924;28;20089;-57
2023/02/01 11:02:31;;;;;;;3.50;1.10;;;16.00;63.50;;;;;;10448206;28;19901;-57
2023/02/01 11:07:32;;;;;;;3.45;1.63;;;16.10;63.30;;;;;;10407482;28;20388;-57
2023/02/01 11:12:38;;;;;;;6.20;1.65;;;16.10;63.20;;;;;;10434892;28;20419;-56
2023/02/01 11:17:47;;;;;;;4.05;1.10;;;16.10;63.20;;;;;;10443745;28;20156;-57
2023/02/01 11:22:55;;;;;;;;;;;16.10;63.20;;;;;;10422529;28;20025;-56
2023/02/01 11:27:57;;;;;;;3.20;1.27;;;16.10;63.00;;;;;;10446804;28;19927;-56
2023/02/01 11:32:58;;;;;;;3.72;1.45;;;16.10;63.00;;;;;;10427015;28;20562;-57
2023/02/01 11:38:00;;;;;;;5.47;1.30;;;16.10;63.10;;;;;;10410510;28;20029;-56
2023/02/01 11:43:19;;;;;;;6.55;1.35;;;16.10;63.00;;;;;;10416810;28;20108;-57
2023/02/01 11:48:19;;;;;;;4.78;1.63;;;16.20;63.10;;;;;;10417562;28;20029;-57
2023/02/01 11:53:51;;;;;;;4.88;1.33;;;16.20;63.20;;;;;;10413286;28;20021;-57
2023/02/01 11:59:04;;;;;;;5.60;1.55;;;16.20;63.60;;;;;;10405896;28;20018;-59
2023/02/01 12:04:23;;;;;;;5.20;1.10;;;16.40;65.50;;;;;;10428260;28;20053;-57
2023/02/01 12:09:51;;;;;;;3.10;1.40;;;16.50;64.30;;;;;;10413789;28;20453;-60
2023/02/01 12:15:34;;;;;;;2.72;0.85;;;16.40;65.00;;;;;;10415958;28;20100;-59
2023/02/01 12:21:22;;;;;;;6.03;1.73;;;16.30;67.00;;;;;;10402838;28;20053;-56
2023/02/01 12:26:44;;;;;;;6.45;1.88;;;16.40;66.30;;;;;;10417555;28;20037;-59
2023/02/01 12:32:07;;;;;;;3.92;1.80;;;16.40;66.50;;;;;;10417947;28;20067;-56
2023/02/01 12:37:50;;;;;;;8.68;2.03;;;16.20;66.90;;;;;;10417962;28;20656;-58
2023/02/01 12:43:21;;;;;;;5.38;1.40;;;16.20;66.90;;;;;;10416557;28;20120;-57
2023/02/01 12:48:28;;;;;;;;;;;16.10;67.00;;;;;;10408466;28;20044;-58
2023/02/01 12:54:11;;;;;;;4.28;1.45;;;16.00;67.30;;;;;;10426649;28;19920;-57
2023/02/01 12:59:38;;;;;;;6.32;1.75;;;15.90;67.50;;;;;;10416323;28;20041;-56
2023/02/01 13:05:03;;;;;;;4.38;1.15;;;15.80;67.10;;;;;;10414272;28;20056;-55
2023/02/01 13:10:20;;;;;;;6.65;1.17;;;15.80;67.20;;;;;;10456220;28;20064;-58
2023/02/01 13:15:30;;;;;;;6.10;1.50;;;15.80;67.30;;;;;;10418315;28;20036;-56
2023/02/01 13:20:49;;;;;;;4.88;1.90;;;15.70;66.80;;;;;;10422369;28;20045;-56
2023/02/01 13:25:52;;;;;;;3.80;1.63;;;15.90;66.90;;;;;;10431410;28;20037;-57
2023/02/01 13:30:58;;;;;;;4.20;1.48;;;16.00;66.10;;;;;;10448159;28;20021;-57
2023/02/01 13:36:19;;;;;;;3.45;1.40;;;16.10;66.00;;;;;;10445724;28;20583;-58
2023/02/01 13:41:52;;;;;;;4.03;1.05;;;16.10;65.90;;;;;;10452546;28;20049;-56
2023/02/01 13:46:56;;;;;;;8.98;1.95;;;16.10;65.80;;;;;;10415095;28;20092;-56
2023/02/01 13:51:59;;;;;;;8.55;1.67;;;16.10;65.60;;;;;;10440683;28;20071;-58
2023/02/01 13:57:02;;;;;;;6.82;1.65;;;16.30;64.90;;;;;;10428570;28;20164;-59
2023/02/01 14:02:40;;;;;;;20.38;3.25;;;16.60;64.30;;;;;;10432000;28;20453;-58
2023/02/01 14:08:15;;;;;;;11.82;2.55;;;16.80;63.80;;;;;;10431484;28;20106;-58
2023/02/01 14:13:41;;;;;;;9.52;1.95;;;17.10;63.30;;;;;;10436829;28;20112;-57
2023/02/01 14:18:44;;;;;;;9.63;2.00;;;17.20;63.30;;;;;;10431752;28;20378;-56
2023/02/01 14:24:16;;;;;;;12.65;1.70;;;17.40;63.10;;;;;;10424245;28;20014;-57
2023/02/01 14:29:17;;;;;;;26.17;3.03;;;17.50;63.10;;;;;;10430455;28;20029;-56
2023/02/01 14:34:21;;;;;;;18.13;2.17;;;17.60;63.20;;;;;;10439688;28;20024;-59
2023/02/01 14:39:39;;;;;;;15.50;1.85;;;17.60;62.90;;;;;;10430470;28;20021;-56
2023/02/01 14:44:39;;;;;;;13.80;1.70;;;17.60;62.70;;;;;;10423039;28;20014;-58
2023/02/01 14:50:24;;;;;;;7.13;1.98;;;17.60;62.80;;;;;;10431614;28;20025;-58
2023/02/01 14:55:46;;;;;;;11.45;2.28;;;17.70;62.80;;;;;;10423955;28;20021;-58
2023/02/01 15:00:55;;;;;;;7.28;1.77;;;17.80;63.00;;;;;;10406648;28;20045;-57
2023/02/01 15:06:00;;;;;;;8.43;1.80;;;17.80;62.90;;;;;;10426503;28;20033;-58
2023/02/01 15:11:09;;;;;;;11.63;2.20;;;17.90;62.70;;;;;;10424486;28;20074;-58
2023/02/01 15:16:15;;;;;;;10.85;2.33;;;17.90;62.30;;;;;;10422697;28;20541;-58
2023/02/01 15:21:23;;;;;;;12.90;1.95;;;17.80;62.30;;;;;;10419306;28;20027;-58
2023/02/01 15:26:32;;;;;;;6.45;1.77;;;17.80;62.60;;;;;;10425530;28;20034;-56
2023/02/01 15:31:37;;;;;;;21.50;3.00;;;17.90;62.40;;;;;;10413974;28;20536;-57
2023/02/01 15:36:38;;;;;;;20.17;3.83;;;17.90;63.20;;;;;;10435921;28;20016;-57
2023/02/01 15:41:51;;;;;;;20.65;3.28;;;17.90;63.40;;;;;;10420490;28;20109;-57
2023/02/01 15:46:52;;;;;;;22.48;4.40;;;17.90;63.80;;;;;;10433095;28;20025;-57
2023/02/01 15:51:55;;;;;;;17.83;4.05;;;18.00;63.70;;;;;;10436667;28;20025;-57
2023/02/01 15:56:58;;;;;;;18.40;4.07;;;18.00;63.80;;;;;;10426957;28;20036;-54
2023/02/01 16:01:59;;;;;;;29.08;5.68;;;17.90;64.40;;;;;;10458396;28;20029;-58
2023/02/01 16:07:04;;;;;;;27.33;5.32;;;17.90;63.10;;;;;;10443617;28;20049;-56
2023/02/01 16:12:30;;;;;;;24.00;4.50;;;17.80;62.60;;;;;;10468295;28;20034;-56
2023/02/01 16:17:32;;;;;;;36.22;3.80;;;18.00;61.50;;;;;;10463038;28;20037;-57
2023/02/01 16:22:32;;;;;;;23.20;3.95;;;18.00;60.60;;;;;;10453262;28;20032;-57
2023/02/01 16:27:33;;;;;;;19.27;3.47;;;18.00;59.70;;;;;;10448137;28;20833;-56
2023/02/01 16:32:37;;;;;;;17.13;4.53;;;18.00;59.70;;;;;;10454207;28;20096;-56
2023/02/01 16:37:38;;;;;;;21.52;5.38;;;18.20;58.50;;;;;;10455467;28;20027;-57
2023/02/01 16:42:39;;;;;;;18.80;3.10;;;18.20;57.90;;;;;;10461691;28;20013;-55
2023/02/01 16:47:47;;;;;;;18.50;5.10;;;18.30;57.70;;;;;;10454276;28;20117;-58
2023/02/01 16:52:48;;;;;;;14.23;3.43;;;18.40;57.60;;;;;;10473880;28;20028;-57
2023/02/01 16:57:49;;;;;;;11.05;3.05;;;18.40;57.60;;;;;;10471817;28;20021;-58
2023/02/01 17:02:50;;;;;;;8.05;4.07;;;18.40;58.40;;;;;;10455815;28;20035;-57
2023/02/01 17:07:51;;;;;;;11.98;4.00;;;18.50;59.30;;;;;;10420576;28;20121;-57
2023/02/01 17:12:52;;;;;;;13.20;3.67;;;18.90;58.20;;;;;;10407351;28;20021;-56
2023/02/01 17:17:54;;;;;;;13.40;3.80;;;19.10;59.60;;;;;;10417537;28;20061;-56
2023/02/01 17:22:55;;;;;;;11.70;3.40;;;19.00;60.60;;;;;;10415182;28;20516;-56
2023/02/01 17:27:56;;;;;;;15.07;3.55;;;18.80;61.50;;;;;;10407159;28;20048;-58
2023/02/01 17:32:56;;;;;;;10.07;2.97;;;18.60;62.80;;;;;;10414146;28;20039;-56
2023/02/01 17:37:57;;;;;;;12.23;2.75;;;18.40;63.30;;;;;;10428918;28;20635;-56
2023/02/01 17:42:58;;;;;;;12.75;3.72;;;18.20;64.00;;;;;;10412423;28;20022;-56
2023/02/01 17:47:58;;;;;;;11.43;3.35;;;17.90;65.60;;;;;;10428658;28;20108;-56
2023/02/01 17:52:59;;;;;;;11.73;2.92;;;17.80;65.60;;;;;;10430103;28;20024;-57
2023/02/01 17:58:00;;;;;;;15.25;2.90;;;17.80;65.00;;;;;;10424125;28;20110;-56
2023/02/01 18:03:01;;;;;;;11.18;3.28;;;17.80;64.60;;;;;;10442175;28;20108;-57
2023/02/01 18:08:02;;;;;;;12.10;3.33;;;17.80;64.70;;;;;;10441998;28;20068;-55
2023/02/01 18:13:03;;;;;;;21.92;4.72;;;17.80;64.70;;;;;;10439045;28;20024;-56
2023/02/01 18:18:04;;;;;;;10.40;2.92;;;17.90;64.40;;;;;;10437887;28;20071;-58
2023/02/01 18:23:04;;;;;;;13.80;3.28;;;17.90;64.40;;;;;;10440621;28;20031;-57
2023/02/01 18:28:05;;;;;;;16.70;4.55;;;17.80;64.40;;;;;;10443845;28;20029;-56
2023/02/01 18:33:11;;;;;;;11.43;2.83;;;17.70;64.70;;;;;;10445092;28;20056;-57
2023/02/01 18:38:12;;;;;;;13.85;2.80;;;17.70;64.70;;;;;;10444325;28;20024;-57
2023/02/01 18:43:13;;;;;;;11.52;5.10;;;17.70;64.80;;;;;;10424914;28;20408;-57
2023/02/01 18:48:16;;;;;;;8.73;3.17;;;17.70;64.70;;;;;;10405292;28;20127;-57
2023/02/01 18:53:19;;;;;;;12.90;3.25;;;17.70;64.80;;;;;;10422770;28;20037;-56
2023/02/01 18:58:24;;;;;;;10.40;3.47;;;17.60;65.00;;;;;;10430143;28;20021;-58
2023/02/01 19:03:25;;;;;;;11.40;3.03;;;17.60;65.10;;;;;;10425132;28;20016;-58
2023/02/01 19:08:26;;;;;;;12.60;3.13;;;17.60;65.60;;;;;;10417732;28;20029;-57
2023/02/01 19:13:29;;;;;;;11.57;2.95;;;17.50;65.90;;;;;;10403295;28;20092;-58
2023/02/01 19:18:30;;;;;;;8.95;2.80;;;17.50;65.90;;;;;;10411838;28;20060;-56
2023/02/01 19:23:31;;;;;;;9.85;2.30;;;17.50;66.20;;;;;;10422697;28;20045;-57
2023/02/01 19:28:32;;;;;;;16.58;2.45;;;17.40;66.40;;;;;;10423373;28;20137;-57
2023/02/01 19:33:33;;;;;;;6.45;2.60;;;17.40;66.10;;;;;;10418453;28;20092;-57
2023/02/01 19:38:34;;;;;;;7.15;3.40;;;17.50;66.30;;;;;;10408967;28;20175;-57
2023/02/01 19:43:35;;;;;;;8.98;3.40;;;17.50;65.90;;;;;;10405685;28;20047;-57
2023/02/01 19:48:36;;;;;;;6.20;2.83;;;17.50;65.70;;;;;;10410185;28;20075;-55
2023/02/01 19:53:37;;;;;;;9.57;4.30;;;17.40;65.80;;;;;;10432064;28;20029;-56
2023/02/01 19:58:37;;;;;;;9.90;4.07;;;17.30;66.30;;;;;;10426268;28;20045;-55
2023/02/01 20:03:38;;;;;;;6.85;3.90;;;17.30;66.50;;;;;;10424210;28;20100;-56
2023/02/01 20:08:39;;;;;;;9.32;3.58;;;17.30;66.10;;;;;;10447018;28;20064;-56
2023/02/01 20:13:39;;;;;;;8.40;3.10;;;17.30;66.30;;;;;;10438156;28;20033;-55
2023/02/01 20:18:40;;;;;;;6.60;3.22;;;17.30;65.80;;;;;;10425216;28;20155;-56
2023/02/01 20:23:41;;;;;;;8.32;2.78;;;17.20;65.70;;;;;;10436278;28;20043;-55
2023/02/01 20:28:41;;;;;;;7.68;3.08;;;17.20;65.70;;;;;;10418242;28;20033;-55
2023/02/01 20:33:42;;;;;;;10.13;4.07;;;17.20;65.80;;;;;;10404784;28;20069;-54
2023/02/01 20:38:43;;;;;;;6.32;3.30;;;17.00;65.90;;;;;;10400551;28;20028;-56
2023/02/01 20:43:44;;;;;;;6.25;2.88;;;16.90;66.10;;;;;;10402875;28;20124;-57
2023/02/01 20:48:47;;;;;;;9.38;2.63;;;16.80;66.20;;;;;;10418506;28;20029;-56
2023/02/01 20:53:50;;;;;;;5.00;2.33;;;16.80;66.40;;;;;;10413965;28;20819;-56
2023/02/01 20:58:51;;;;;;;4.35;2.50;;;16.70;66.40;;;;;;10428795;28;20685;-56
2023/02/01 21:03:52;;;;;;;4.85;2.92;;;16.60;66.50;;;;;;10444336;28;20124;-56
2023/02/01 21:08:52;;;;;;;4.43;2.65;;;16.60;66.60;;;;;;10435994;28;20065;-55
2023/02/01 21:13:53;;;;;;;5.38;2.50;;;16.50;66.70;;;;;;10416815;28;20072;-56
2023/02/01 21:18:54;;;;;;;4.45;2.45;;;16.40;66.80;;;;;;10421870;28;20073;-56
2023/02/01 21:23:56;;;;;;;4.25;2.75;;;16.40;66.90;;;;;;10444910;28;20053;-54
2023/02/01 21:28:56;;;;;;;5.10;2.53;;;16.30;67.00;;;;;;10428949;28;20038;-56
2023/02/01 21:33:57;;;;;;;3.42;1.90;;;16.20;67.10;;;;;;10404240;28;20112;-56
2023/02/01 21:39:02;;;;;;;6.05;3.90;;;16.20;67.20;;;;;;10429261;28;20140;-56
2023/02/01 21:44:03;;;;;;;6.25;2.40;;;16.20;67.30;;;;;;10402556;28;20025;-56
2023/02/01 21:49:04;;;;;;;4.35;1.83;;;16.10;67.30;;;;;;10424827;28;20185;-55
2023/02/01 21:54:07;;;;;;;4.00;1.98;;;16.00;67.30;;;;;;10430617;28;20105;-55
2023/02/01 21:59:09;;;;;;;5.97;3.25;;;16.00;67.40;;;;;;10443149;28;20009;-56
2023/02/01 22:04:10;;;;;;;3.30;1.80;;;15.90;67.50;;;;;;10449898;28;20029;-56
2023/02/01 22:09:22;;;;;;;3.53;1.60;;;15.90;67.50;;;;;;10451026;28;20041;-55
2023/02/01 22:14:23;;;;;;;4.13;2.17;;;15.90;67.50;;;;;;10422953;28;20029;-56
2023/02/01 22:19:24;;;;;;;3.08;1.55;;;15.80;67.60;;;;;;10429556;28;20127;-56
2023/02/01 22:24:25;;;;;;;5.25;2.05;;;15.80;67.60;;;;;;10437231;28;20035;-56
2023/02/01 22:29:25;;;;;;;4.40;1.75;;;15.80;67.60;;;;;;10419630;28;20025;-56
2023/02/01 22:34:26;;;;;;;3.08;1.30;;;15.70;67.60;;;;;;10407209;28;20345;-56
2023/02/01 22:39:26;;;;;;;2.67;1.60;;;15.80;67.70;;;;;;10408002;28;20025;-56
2023/02/01 22:44:27;;;;;;;5.13;1.88;;;15.70;67.60;;;;;;10424403;28;20117;-56
2023/02/01 22:49:28;;;;;;;4.82;1.45;;;15.70;67.70;;;;;;10415350;28;20119;-56
2023/02/01 22:54:28;;;;;;;2.90;1.63;;;15.60;67.60;;;;;;10412686;28;20045;-57
2023/02/01 22:59:29;;;;;;;3.28;1.55;;;15.60;67.70;;;;;;10407821;28;20096;-56
2023/02/01 23:04:30;;;;;;;4.63;2.28;;;15.60;67.70;;;;;;10410646;28;20140;-56
2023/02/01 23:09:30;;;;;;;2.53;1.58;;;15.60;67.70;;;;;;10449012;28;20140;-55
2023/02/01 23:14:31;;;;;;;5.32;1.85;;;15.60;67.70;;;;;;10447563;28;20119;-57
2023/02/01 23:19:32;;;;;;;5.03;2.13;;;15.60;67.80;;;;;;10434549;28;20132;-55
2023/02/01 23:24:32;;;;;;;3.13;1.05;;;15.50;67.80;;;;;;10431252;28;20112;-55
2023/02/01 23:29:33;;;;;;;3.42;1.60;;;15.50;67.80;;;;;;10433975;28;20652;-57
2023/02/01 23:34:34;;;;;;;5.32;1.77;;;15.50;67.80;;;;;;10430219;28;20432;-57
2023/02/01 23:39:35;;;;;;;3.25;1.98;;;15.40;67.70;;;;;;10434855;28;20017;-57
2023/02/01 23:44:35;;;;;;;2.88;1.63;;;15.40;67.80;;;;;;10424538;28;20022;-56
2023/02/01 23:49:37;;;;;;;5.60;1.45;;;15.40;67.80;;;;;;10413729;28;20088;-55
2023/02/01 23:54:37;;;;;;;3.17;1.52;;;15.40;67.80;;;;;;10408714;28;20457;-56
2023/02/01 23:59:38;;;;;;;3.50;1.15;;;15.40;67.90;;;;;;10404992;28;20104;-57
